Time;durP1;ratioP1;P1;durP2;ratioP2;P2;SDS_P1;SDS_P2;PMS_P1;PMS_P2;Temp;Humidity;BMP_temperature;BMP_pressure;BME280_temperature;BME280_humidity;BME280_pressure;Samples;Min_cycle;Max_cycle;Signal;HPM_P1;HPM_P2
2022/07/13 17:19:09;;;;;;;3.03;1.27;;;;;;;;;;4830720;24;20053;31
2022/07/13 17:21:35;;;;;;;4.43;1.10;;;;;;;;;;5418409;24;21683;-61
2022/07/13 17:24:01;;;;;;;2.50;1.17;;;;;;;;;;4814075;29;20137;-60
2022/07/13 17:26:26;;;;;;;1.98;1.17;;;;;;;;;;4816816;29;20123;-60
2022/07/13 17:28:55;;;;;;;4.32;1.30;;;;;;;;;;4818516;29;20030;-61
2022/07/13 17:31:24;;;;;;;3.42;1.40;;;;;;;;;;4820321;29;20113;-61
2022/07/13 17:33:54;;;;;;;4.22;1.30;;;;;;;;;;4815431;29;20595;-61
2022/07/13 17:36:20;;;;;;;4.18;1.23;;;;;;;;;;4817338;29;20402;-60
2022/07/13 17:38:46;;;;;;;4.82;1.00;;;;;;;;;;4799732;29;20038;-59
2022/07/13 17:41:11;;;;;;;4.70;1.55;;;;;;;;;;4817472;29;20026;-60
2022/07/13 17:43:37;;;;;;;1.67;1.05;;;;;;;;;;4815456;29;20103;-59
2022/07/13 17:46:03;;;;;;;3.63;1.13;;;;;;;;;;4816011;29;20039;-60
2022/07/13 17:48:29;;;;;;;8.52;1.17;;;;;;;;;;4818759;29;20514;-61
2022/07/13 17:50:55;;;;;;;6.50;1.50;;;;;;;;;;4818832;29;20399;-60
2022/07/13 17:53:20;;;;;;;5.78;1.00;;;;;;;;;;4819336;29;20069;-60
2022/07/13 17:55:46;;;;;;;2.10;1.42;;;;;;;;;;4817997;29;20073;-59
2022/07/13 17:58:11;;;;;;;6.80;1.73;;;;;;;;;;4822140;29;20062;-59
2022/07/13 18:00:36;;;;;;;5.32;1.50;;;;;;;;;;4815257;29;20039;-61
2022/07/13 18:03:03;;;;;;;5.32;1.98;;;;;;;;;;4818368;29;20452;-60
2022/07/13 18:05:29;;;;;;;2.20;1.60;;;;;;;;;;4815900;29;20041;-61
2022/07/13 18:07:55;;;;;;;4.22;1.70;;;;;;;;;;4814649;29;20038;-59
2022/07/13 18:10:21;;;;;;;5.70;1.83;;;;;;;;;;4797500;29;20598;-60
2022/07/13 18:12:46;;;;;;;8.77;1.92;;;;;;;;;;4814748;29;20059;-60
2022/07/13 18:15:12;;;;;;;4.90;1.67;;;;;;;;;;4814286;29;20138;-60
2022/07/13 18:17:38;;;;;;;5.90;2.38;;;;;;;;;;4814557;29;20091;-59
2022/07/13 18:20:04;;;;;;;5.45;2.08;;;;;;;;;;4815008;29;20039;-60
2022/07/13 18:22:30;;;;;;;6.03;2.00;;;;;;;;;;4809767;29;20129;-60
2022/07/13 18:24:58;;;;;;;5.72;2.25;;;;;;;;;;4798690;29;20186;-60
2022/07/13 18:27:23;;;;;;;7.93;1.85;;;;;;;;;;4805595;29;20061;-60
2022/07/13 18:29:49;;;;;;;6.25;2.13;;;;;;;;;;4812298;29;20050;-60
2022/07/13 18:32:14;;;;;;;3.70;1.88;;;;;;;;;;4806624;29;20111;-60
2022/07/13 18:34:40;;;;;;;6.65;1.55;;;;;;;;;;4797739;29;20054;-60
2022/07/13 18:37:06;;;;;;;5.22;2.08;;;;;;;;;;4813502;29;20486;-60
2022/07/13 18:39:31;;;;;;;5.22;1.38;;;;;;;;;;4814815;29;20034;-60
2022/07/13 18:41:57;;;;;;;7.68;2.55;;;;;;;;;;4813493;29;20091;-60
2022/07/13 18:44:22;;;;;;;5.78;2.20;;;;;;;;;;4816306;29;20103;-60
2022/07/13 18:46:49;;;;;;;6.65;2.03;;;;;;;;;;4814527;29;20057;-59
2022/07/13 18:49:14;;;;;;;3.28;1.50;;;;;;;;;;4812221;29;20045;-61
2022/07/13 18:51:39;;;;;;;6.57;1.42;;;;;;;;;;4816870;29;20054;-60
2022/07/13 18:54:05;;;;;;;3.10;1.60;;;;;;;;;;4813993;29;21412;-61
2022/07/13 18:56:31;;;;;;;2.78;1.25;;;;;;;;;;4819149;29;20069;-60
2022/07/13 18:58:57;;;;;;;5.57;1.20;;;;;;;;;;4815895;29;20080;-60
2022/07/13 19:01:23;;;;;;;4.40;1.25;;;;;;;;;;4805836;29;20033;-60
2022/07/13 19:03:48;;;;;;;3.38;1.35;;;;;;;;;;4791302;29;20429;-59
2022/07/13 19:06:13;;;;;;;4.13;1.60;;;;;;;;;;4812528;29;20495;-59
2022/07/13 19:08:39;;;;;;;6.05;1.50;;;;;;;;;;4815384;29;20380;-60
2022/07/13 19:11:06;;;;;;;1.65;1.20;;;;;;;;;;4809713;29;20130;-60
2022/07/13 19:13:32;;;;;;;2.47;1.50;;;;;;;;;;4807458;29;20048;-61
2022/07/13 19:15:58;;;;;;;3.25;1.83;;;;;;;;;;4817207;29;20394;-59
2022/07/13 19:18:23;;;;;;;3.83;1.88;;;;;;;;;;4817069;29;20057;-61
2022/07/13 19:20:49;;;;;;;5.35;1.45;;;;;;;;;;4804580;29;20038;-60
2022/07/13 19:23:14;;;;;;;4.78;1.77;;;;;;;;;;4804653;29;20090;-60
2022/07/13 19:28:24;;;;;;;4.55;1.30;;;;;;;;;;4812962;29;20838;-60
2022/07/13 19:30:49;;;;;;;9.50;1.50;;;;;;;;;;4805403;29;20039;-60
2022/07/13 19:33:15;;;;;;;7.53;2.25;;;;;;;;;;4802590;29;20551;-60
2022/07/13 19:35:40;;;;;;;4.05;1.40;;;;;;;;;;4813238;29;20077;-60
2022/07/13 19:38:07;;;;;;;2.28;1.60;;;;;;;;;;4806700;29;20521;-59
2022/07/13 19:40:32;;;;;;;4.38;1.50;;;;;;;;;;4806755;29;20513;-60
2022/07/13 19:42:57;;;;;;;3.88;1.70;;;;;;;;;;4813894;29;20034;-60
2022/07/13 19:45:23;;;;;;;4.18;1.20;;;;;;;;;;4811652;29;20038;-60
2022/07/13 19:47:49;;;;;;;4.10;1.70;;;;;;;;;;4800032;29;20261;-60
2022/07/13 19:50:14;;;;;;;3.72;1.77;;;;;;;;;;4810827;29;20053;-60
2022/07/13 19:52:40;;;;;;;3.25;1.65;;;;;;;;;;4807449;29;20046;-61
2022/07/13 19:55:06;;;;;;;3.00;1.73;;;;;;;;;;4816730;29;20046;-60
2022/07/13 19:57:31;;;;;;;4.03;2.25;;;;;;;;;;4816945;29;20074;-59
2022/07/13 19:59:57;;;;;;;4.45;1.50;;;;;;;;;;4811800;29;20145;-60
2022/07/13 20:02:23;;;;;;;6.65;1.85;;;;;;;;;;4816551;29;20039;-59
2022/07/13 20:04:48;;;;;;;5.38;1.90;;;;;;;;;;4815766;29;20115;-60
2022/07/13 20:07:14;;;;;;;3.97;1.80;;;;;;;;;;4821213;29;20038;-61
2022/07/13 20:09:39;;;;;;;5.22;2.00;;;;;;;;;;4823898;29;20482;-60
2022/07/13 20:12:06;;;;;;;5.95;2.10;;;;;;;;;;4812250;29;20047;-62
2022/07/13 20:14:32;;;;;;;5.13;1.60;;;;;;;;;;4818798;29;20115;-61
2022/07/13 20:16:58;;;;;;;7.35;2.03;;;;;;;;;;4816608;29;20567;-60
2022/07/13 20:19:24;;;;;;;4.93;1.90;;;;;;;;;;4815488;29;20046;-61
2022/07/13 20:21:49;;;;;;;7.07;2.10;;;;;;;;;;4808904;29;20081;-60
2022/07/13 20:24:14;;;;;;;10.43;2.05;;;;;;;;;;4816959;29;20058;-59
2022/07/13 20:26:40;;;;;;;4.18;2.03;;;;;;;;;;4812989;29;20050;-60
2022/07/13 20:29:07;;;;;;;4.07;1.80;;;;;;;;;;4824734;29;20137;-60
2022/07/13 20:31:33;;;;;;;6.28;2.22;;;;;;;;;;4806095;29;20399;-61
2022/07/13 20:33:59;;;;;;;4.35;2.00;;;;;;;;;;4803837;29;20042;-61
2022/07/13 20:36:28;;;;;;;8.57;2.13;;;;;;;;;;4821166;29;20510;-61
2022/07/13 20:38:54;;;;;;;6.00;1.90;;;;;;;;;;4820139;29;20050;-61
2022/07/13 20:41:21;;;;;;;5.63;2.03;;;;;;;;;;4817762;29;20030;-60
2022/07/13 20:43:46;;;;;;;4.07;1.88;;;;;;;;;;4813075;29;20046;-60
2022/07/13 20:46:12;;;;;;;5.43;2.22;;;;;;;;;;4819217;29;20399;-61
2022/07/13 20:48:37;;;;;;;4.60;2.38;;;;;;;;;;4822028;29;20054;-61
2022/07/13 20:51:03;;;;;;;3.83;1.88;;;;;;;;;;4816578;29;20053;-61
2022/07/13 20:53:29;;;;;;;9.40;2.28;;;;;;;;;;4815977;29;21258;-60
2022/07/13 20:55:54;;;;;;;7.90;2.47;;;;;;;;;;4819258;29;20045;-60
2022/07/13 20:58:20;;;;;;;4.55;2.22;;;;;;;;;;4822655;29;20109;-61
2022/07/13 21:00:45;;;;;;;5.00;2.28;;;;;;;;;;4825473;29;20034;-61
2022/07/13 21:03:14;;;;;;;4.85;2.17;;;;;;;;;;4820468;29;20038;-60
2022/07/13 21:05:41;;;;;;;8.35;2.08;;;;;;;;;;4822088;29;20050;-60
2022/07/13 21:08:06;;;;;;;3.97;2.00;;;;;;;;;;4820953;29;20042;-59
2022/07/13 21:10:31;;;;;;;5.10;2.40;;;;;;;;;;4815824;29;20543;-61
2022/07/13 21:12:57;;;;;;;7.03;2.25;;;;;;;;;;4817048;29;20068;-62
2022/07/13 21:15:22;;;;;;;3.17;2.20;;;;;;;;;;4814515;29;20521;-59
2022/07/13 21:17:48;;;;;;;8.23;2.50;;;;;;;;;;4822607;29;21054;-60
2022/07/13 21:20:13;;;;;;;7.47;2.20;;;;;;;;;;4808900;29;20419;-60
2022/07/13 21:22:40;;;;;;;9.13;2.50;;;;;;;;;;4812073;29;20123;-61
2022/07/13 21:25:08;;;;;;;7.13;2.10;;;;;;;;;;4815342;29;20129;-59
2022/07/13 21:27:34;;;;;;;6.47;2.20;;;;;;;;;;4815483;29;20043;-60
2022/07/13 21:29:59;;;;;;;4.45;2.13;;;;;;;;;;4810186;29;20631;-62
2022/07/13 21:32:25;;;;;;;4.72;2.20;;;;;;;;;;4816827;29;20050;-62
2022/07/13 21:34:50;;;;;;;3.38;2.30;;;;;;;;;;4814781;29;20125;-60
2022/07/13 21:37:15;;;;;;;6.60;2.45;;;;;;;;;;4819657;29;20076;-63
2022/07/13 21:39:41;;;;;;;3.70;2.30;;;;;;;;;;4817415;29;20031;-62
2022/07/13 21:42:06;;;;;;;3.85;2.42;;;;;;;;;;4812530;29;20034;-61
2022/07/13 21:44:31;;;;;;;7.13;2.60;;;;;;;;;;4819658;29;20055;-61
2022/07/13 21:46:57;;;;;;;3.97;2.50;;;;;;;;;;4820942;29;20042;-60
2022/07/13 21:49:22;;;;;;;4.38;2.40;;;;;;;;;;4818042;29;20030;-60
2022/07/13 21:51:47;;;;;;;7.55;2.53;;;;;;;;;;4821575;29;20027;-60
2022/07/13 21:54:13;;;;;;;5.00;2.00;;;;;;;;;;4804750;29;20062;-60
2022/07/13 21:56:38;;;;;;;3.53;2.30;;;;;;;;;;4821657;29;20058;-63
2022/07/13 21:59:04;;;;;;;3.33;2.20;;;;;;;;;;4814609;29;20054;-62
2022/07/13 22:01:29;;;;;;;8.90;2.30;;;;;;;;;;4818092;29;20030;-62
2022/07/13 22:03:55;;;;;;;4.88;2.05;;;;;;;;;;4817522;29;20027;-60
2022/07/13 22:06:23;;;;;;;5.65;2.13;;;;;;;;;;4818282;29;20043;-62
2022/07/13 22:08:48;;;;;;;5.30;1.63;;;;;;;;;;4821227;29;20042;-61
2022/07/13 22:11:51;;;;;;;2.50;1.90;;;;;;;;;;4819413;29;20038;-63
2022/07/13 22:14:35;;;;;;;;;;;;;;;;;;4815452;29;20706;-59
2022/07/13 22:17:38;;;;;;;7.47;1.70;;;;;;;;;;4816594;29;19928;-61
2022/07/13 22:20:22;;;;;;;;;;;;;;;;;;4814520;29;20045;-59
2022/07/13 22:23:25;;;;;;;2.55;1.65;;;;;;;;;;4816450;29;19920;-63
2022/07/13 22:26:29;;;;;;;3.00;1.75;;;;;;;;;;4812745;29;20050;-62
2022/07/13 22:29:33;;;;;;;1.95;1.20;;;;;;;;;;4816807;29;20061;-61
2022/07/13 22:32:36;;;;;;;1.60;1.48;;;;;;;;;;4816400;29;20053;-62
2022/07/13 22:35:20;;;;;;;;;;;;;;;;;;4815235;29;20117;-61
2022/07/13 22:38:23;;;;;;;2.22;1.50;;;;;;;;;;4821021;29;20392;-61
2022/07/13 22:41:26;;;;;;;3.47;1.55;;;;;;;;;;4818609;29;20041;-61
2022/07/13 22:44:10;;;;;;;;;;;;;;;;;;4811442;29;20054;-60
2022/07/13 22:47:13;;;;;;;4.35;1.60;;;;;;;;;;4817648;29;19933;-61
2022/07/13 22:50:16;;;;;;;4.47;1.70;;;;;;;;;;4817986;29;20050;-61
2022/07/13 22:53:19;;;;;;;4.53;1.40;;;;;;;;;;4818974;29;20038;-60
2022/07/13 22:56:03;;;;;;;;;;;;;;;;;;4817532;29;20529;-60
2022/07/13 22:59:06;;;;;;;4.88;1.90;;;;;;;;;;4812352;29;19935;-62
2022/07/13 23:02:09;;;;;;;2.63;1.60;;;;;;;;;;4819837;29;20031;-62
2022/07/13 23:05:12;;;;;;;2.08;1.50;;;;;;;;;;4817276;29;20495;-61
2022/07/13 23:08:15;;;;;;;2.60;1.50;;;;;;;;;;4818106;29;20069;-61
2022/07/13 23:11:18;;;;;;;1.95;1.50;;;;;;;;;;4821480;29;20507;-61
2022/07/13 23:14:21;;;;;;;2.58;1.58;;;;;;;;;;4814908;29;20039;-62
2022/07/13 23:17:24;;;;;;;2.08;1.42;;;;;;;;;;4814589;29;20145;-61
2022/07/13 23:20:08;;;;;;;;;;;;;;;;;;4818744;29;20745;-59
2022/07/13 23:23:11;;;;;;;2.40;1.60;;;;;;;;;;4816181;29;19938;-61
2022/07/13 23:26:14;;;;;;;2.25;1.63;;;;;;;;;;4816707;29;20049;-62
2022/07/13 23:28:39;;;;;;;;;;;;;;;;;;4817751;29;21392;-58
2022/07/13 23:31:18;;;;;;;1.20;1.10;;;;;;;;;;4814129;29;19932;-61
2022/07/13 23:33:44;;;;;;;3.05;1.30;;;;;;;;;;4815474;29;20110;-62
2022/07/13 23:36:11;;;;;;;2.95;1.30;;;;;;;;;;4816609;29;20050;-62
2022/07/13 23:38:38;;;;;;;2.70;0.95;;;;;;;;;;4817545;29;20046;-63
2022/07/13 23:41:06;;;;;;;1.33;0.90;;;;;;;;;;4815446;29;20038;-61
2022/07/13 23:43:32;;;;;;;3.00;1.02;;;;;;;;;;4819037;29;20061;-62
2022/07/13 23:45:58;;;;;;;4.45;1.20;;;;;;;;;;4818042;29;20529;-61
2022/07/13 23:48:23;;;;;;;5.28;1.60;;;;;;;;;;4819845;29;20074;-61
2022/07/13 23:50:48;;;;;;;2.35;1.30;;;;;;;;;;4814186;29;20530;-61
2022/07/13 23:53:14;;;;;;;2.53;1.27;;;;;;;;;;4817879;29;20066;-61
2022/07/13 23:55:39;;;;;;;1.60;1.10;;;;;;;;;;4820578;29;20042;-60
2022/07/13 23:58:04;;;;;;;2.05;1.20;;;;;;;;;;4815672;29;20064;-61
